Time;durP1;ratioP1;P1;durP2;ratioP2;P2;SDS_P1;SDS_P2;PMS_P1;PMS_P2;Temp;Humidity;BMP_temperature;BMP_pressure;BME280_temperature;BME280_humidity;BME280_pressure;Samples;Min_cycle;Max_cycle;Signal;HPM_P1;HPM_P2
2021/10/26 00:01:56;;;;;;;;;0.00;0.00;;;;;12.76;73.72;101754.28;5064671;28;45298;-77
2021/10/26 00:04:22;;;;;;;;;0.00;0.00;;;;;12.70;74.13;101745.44;5083257;28;45310;-77
2021/10/26 00:06:47;;;;;;;;;1.75;0.00;;;;;12.62;73.86;101733.13;5064281;28;46016;-77
2021/10/26 00:09:13;;;;;;;;;0.00;0.00;;;;;12.70;73.84;101753.28;5064435;28;45690;-77
2021/10/26 00:11:39;;;;;;;;;0.00;0.00;;;;;12.63;73.59;101742.75;5082818;28;45239;-77
2021/10/26 00:14:05;;;;;;;;;0.00;0.00;;;;;12.61;73.86;101740.94;5083109;28;45340;-77
2021/10/26 00:16:30;;;;;;;;;0.00;0.00;;;;;12.58;74.06;101736.56;5082575;28;45472;-77
2021/10/26 00:18:56;;;;;;;;;0.00;0.00;;;;;12.66;73.57;101750.66;5064425;28;45509;-77
2021/10/26 00:21:21;;;;;;;;;0.00;0.00;;;;;12.44;73.40;101723.28;5082889;28;45286;-77
2021/10/26 00:23:46;;;;;;;;;0.00;0.00;;;;;12.57;73.68;101737.44;5063753;28;45682;-77
2021/10/26 00:26:12;;;;;;;;;0.00;0.00;;;;;12.50;73.62;101730.34;5067699;28;46308;-77
2021/10/26 00:28:38;;;;;;;;;0.25;0.00;;;;;12.53;73.80;101746.06;5062508;28;45306;-78
2021/10/26 00:31:03;;;;;;;;;0.00;0.00;;;;;12.51;73.45;101740.81;5044390;28;45363;-77
2021/10/26 00:33:29;;;;;;;;;0.75;0.00;;;;;12.36;73.38;101720.53;5079808;28;45453;-77
2021/10/26 00:35:55;;;;;;;;;0.50;0.00;;;;;12.43;73.92;101745.00;5063889;28;47331;-77
2021/10/26 00:38:21;;;;;;;;;1.00;0.00;;;;;12.49;73.52;101759.91;5080179;28;45267;-77
2021/10/26 00:40:47;;;;;;;;;0.00;0.00;;;;;12.34;73.64;101750.97;5082134;28;45457;-77
2021/10/26 00:43:13;;;;;;;;;0.00;0.00;;;;;12.40;73.77;101756.28;5082601;28;45496;-77
2021/10/26 00:45:38;;;;;;;;;0.00;0.00;;;;;12.36;73.57;101744.03;5082202;28;46218;-77
2021/10/26 00:48:04;;;;;;;;;0.00;0.00;;;;;12.45;73.41;101769.44;5081677;28;45350;-77
2021/10/26 00:50:30;;;;;;;;;0.00;0.00;;;;;12.37;73.40;101764.06;5082600;28;45266;-77
2021/10/26 00:52:55;;;;;;;;;0.00;0.00;;;;;12.35;73.74;101767.50;5081856;28;45398;-77
2021/10/26 00:55:21;;;;;;;;;0.00;0.00;;;;;12.26;73.34;101753.47;5082224;28;45752;-77
2021/10/26 00:57:47;;;;;;;;;0.00;0.00;;;;;12.29;73.60;101763.94;5081359;28;45397;-77
2021/10/26 01:00:14;;;;;;;;;0.25;0.00;;;;;12.31;73.68;101771.78;5081934;28;45350;-78
2021/10/26 01:02:44;;;;;;;;;0.00;0.00;;;;;12.39;73.35;101774.53;5082536;28;45271;-77
2021/10/26 01:05:10;;;;;;;;;0.00;0.00;;;;;12.36;73.33;101780.59;5081985;28;46396;-77
2021/10/26 01:07:36;;;;;;;;;0.25;0.00;;;;;12.31;73.42;101766.56;5080820;28;45495;-77
2021/10/26 01:10:03;;;;;;;;;0.00;0.00;;;;;12.36;73.15;101778.00;5081984;28;45260;-77
2021/10/26 01:12:29;;;;;;;;;0.00;0.00;;;;;12.34;73.41;101776.22;5082391;28;45382;-77
2021/10/26 01:14:56;;;;;;;;;0.00;0.00;;;;;12.33;73.56;101783.16;5081855;28;46325;-77
2021/10/26 01:17:22;;;;;;;;;0.00;0.00;;;;;12.30;72.95;101777.88;5081621;28;45229;-77
2021/10/26 01:19:52;;;;;;;;;0.50;0.00;;;;;12.24;73.29;101770.81;5082002;28;45267;-77
2021/10/26 01:22:20;;;;;;;;;0.00;0.00;;;;;12.27;73.59;101777.81;5080344;28;45344;-77
2021/10/26 01:24:46;;;;;;;;;1.00;0.00;;;;;12.14;72.80;101764.56;5062940;28;46048;-77
2021/10/26 01:27:13;;;;;;;;;0.00;0.00;;;;;12.24;73.17;101778.66;5081622;28;45296;-77
2021/10/26 01:29:38;;;;;;;;;0.00;0.00;;;;;11.98;73.31;101738.97;5081848;28;45227;-77
2021/10/26 01:32:06;;;;;;;;;0.00;0.00;;;;;12.16;73.26;101769.81;5081892;28;45231;-77
2021/10/26 01:34:32;;;;;;;;;0.00;0.00;;;;;12.07;73.54;101765.25;5082682;28;45632;-77
2021/10/26 01:37:00;;;;;;;;;0.00;0.00;;;;;11.99;73.35;101751.16;5084982;28;45318;-77
2021/10/26 01:39:27;;;;;;;;;0.00;0.00;;;;;12.02;73.42;101754.72;5085354;28;45270;-77
2021/10/26 01:41:53;;;;;;;;;0.00;0.00;;;;;12.17;73.43;101776.78;5085497;28;45343;-77
2021/10/26 01:44:18;;;;;;;;;0.00;0.00;;;;;12.08;73.31;101771.38;5084453;28;45592;-77
2021/10/26 01:46:43;;;;;;;;;0.00;0.00;;;;;12.08;73.02;101772.25;5084989;28;45346;-77
2021/10/26 01:49:09;;;;;;;;;0.00;0.00;;;;;12.00;73.10;101765.97;5085211;28;45196;-77
2021/10/26 01:51:34;;;;;;;;;0.00;0.00;;;;;11.79;73.13;101736.00;5085409;28;45338;-77
2021/10/26 01:53:59;;;;;;;;;0.50;0.00;;;;;12.07;73.14;101783.53;5084752;28;46165;-77
2021/10/26 01:56:25;;;;;;;;;0.00;0.00;;;;;12.07;73.47;101780.06;5066687;28;45292;-77
2021/10/26 01:58:51;;;;;;;;;0.00;0.00;;;;;12.02;73.35;101775.59;5085218;28;45352;-77
2021/10/26 02:01:16;;;;;;;;;0.00;0.00;;;;;11.80;73.47;101743.00;5085332;28;45345;-76
2021/10/26 02:03:41;;;;;;;;;0.00;0.00;;;;;11.93;73.38;101757.16;5084672;28;45337;-77
2021/10/26 02:06:07;;;;;;;;;0.00;0.00;;;;;11.90;73.02;101752.75;5084854;28;45587;-77
2021/10/26 02:08:33;;;;;;;;;0.00;0.00;;;;;11.99;73.32;101772.03;5066458;28;45338;-77
2021/10/26 02:10:58;;;;;;;;;0.00;0.00;;;;;12.01;73.27;101771.22;5085299;28;45330;-77
2021/10/26 02:13:24;;;;;;;;;0.75;0.75;;;;;11.95;73.22;101765.00;5083254;28;45954;-78
2021/10/26 02:15:49;;;;;;;;;0.00;0.00;;;;;12.02;73.26;101775.59;5084446;28;45275;-77
2021/10/26 02:18:14;;;;;;;;;0.00;0.00;;;;;11.94;73.10;101774.56;5084850;28;45642;-77
2021/10/26 02:20:40;;;;;;;;;1.50;0.50;;;;;11.84;73.36;101750.03;5084846;28;45612;-77
2021/10/26 02:23:05;;;;;;;;;0.00;0.00;;;;;11.82;73.15;101756.06;5084258;28;46172;-77
2021/10/26 02:25:31;;;;;;;;;0.00;0.00;;;;;11.96;73.19;101775.47;5078158;28;45221;-77
2021/10/26 02:27:56;;;;;;;;;0.00;0.00;;;;;11.86;73.25;101753.56;5064381;28;45216;-77
2021/10/26 02:30:22;;;;;;;;;0.00;0.00;;;;;12.00;73.57;101782.50;5064629;28;45276;-77
2021/10/26 02:32:48;;;;;;;;;0.00;0.00;;;;;11.90;73.29;101755.38;5075679;28;45631;-77
2021/10/26 02:35:13;;;;;;;;;0.00;0.00;;;;;11.93;73.09;101772.81;5084321;28;45180;-77
2021/10/26 02:37:39;;;;;;;;;0.00;0.00;;;;;12.05;73.21;101785.22;5084230;28;45255;-77
2021/10/26 02:40:05;;;;;;;;;0.00;0.00;;;;;12.04;72.95;101780.84;5084766;28;45217;-77
2021/10/26 02:42:31;;;;;;;;;0.00;0.00;;;;;11.99;72.70;101783.38;5084214;28;46610;-77
2021/10/26 02:44:56;;;;;;;;;0.00;0.00;;;;;11.99;72.87;101770.31;5083666;28;45340;-77
2021/10/26 02:47:21;;;;;;;;;0.00;0.00;;;;;12.07;72.70;101782.66;5084341;28;45329;-77
2021/10/26 02:49:47;;;;;;;;;0.00;0.00;;;;;12.00;72.72;101768.56;5084572;28;45295;-77
2021/10/26 02:52:12;;;;;;;;;0.00;0.00;;;;;11.89;72.71;101756.19;5083932;28;45306;-77
2021/10/26 02:54:38;;;;;;;;;0.00;0.00;;;;;11.97;72.93;101764.19;5082655;28;45901;-77
2021/10/26 02:57:04;;;;;;;;;0.00;0.00;;;;;11.96;72.59;101775.47;5084183;28;45471;-77
2021/10/26 02:59:29;;;;;;;;;0.00;0.00;;;;;12.06;72.59;101786.97;5084369;28;45347;-77
2021/10/26 03:01:54;;;;;;;;;0.00;0.00;;;;;11.73;72.17;101752.41;5083951;28;46106;-77
2021/10/26 03:04:20;;;;;;;;;0.00;0.00;;;;;11.87;72.79;101783.13;5082519;28;45529;-77
2021/10/26 03:06:46;;;;;;;;;0.00;0.00;;;;;11.91;72.84;101790.16;5082639;28;45262;-77
2021/10/26 03:09:12;;;;;;;;;0.00;0.00;;;;;11.85;72.47;101785.69;5065859;28;45316;-77
2021/10/26 03:11:38;;;;;;;;;1.50;0.00;;;;;11.93;72.77;101798.00;5083645;28;45271;-77
2021/10/26 03:14:05;;;;;;;;;0.75;0.00;;;;;11.97;72.58;101807.69;5083576;28;45286;-77
2021/10/26 03:16:31;;;;;;;;;0.00;0.00;;;;;11.96;72.69;101800.69;5083846;28;45475;-77
2021/10/26 03:18:56;;;;;;;;;0.00;0.00;;;;;11.89;72.33;101786.66;5083824;28;45347;-77
2021/10/26 03:21:21;;;;;;;;;0.00;0.00;;;;;12.02;72.41;101799.09;5083216;28;45952;-77
2021/10/26 03:23:47;;;;;;;;;0.00;0.00;;;;;12.01;72.44;101799.91;5083288;28;45337;-77
2021/10/26 03:26:12;;;;;;;;;0.00;0.00;;;;;11.97;72.43;101798.09;5083892;28;45334;-77
2021/10/26 03:28:38;;;;;;;;;0.00;0.00;;;;;11.87;72.43;101783.13;5084039;28;45493;-77
2021/10/26 03:31:04;;;;;;;;;0.00;0.00;;;;;11.97;72.24;101803.31;5083471;28;47089;-77
2021/10/26 03:33:31;;;;;;;;;0.00;0.00;;;;;11.91;72.58;101793.66;5082770;28;45324;-77
2021/10/26 03:35:59;;;;;;;;;0.00;0.00;;;;;11.99;72.72;101803.34;5064837;28;45327;-77
2021/10/26 03:38:24;;;;;;;;;0.00;0.00;;;;;11.89;72.48;101787.50;5083215;28;45236;-77
2021/10/26 03:40:49;;;;;;;;;0.00;0.00;;;;;11.87;72.68;101789.22;5065183;28;46330;-77
2021/10/26 03:43:15;;;;;;;;;0.00;0.00;;;;;11.84;72.67;101789.16;5065003;28;45189;-77
2021/10/26 03:45:40;;;;;;;;;0.00;0.00;;;;;11.89;72.78;101794.47;5083610;28;45223;-77
2021/10/26 03:48:08;;;;;;;;;0.00;0.00;;;;;11.97;72.22;101807.69;5083571;28;45341;-77
2021/10/26 03:50:33;;;;;;;;;0.00;0.00;;;;;11.83;72.59;101795.25;5064932;28;46931;-77
2021/10/26 03:52:59;;;;;;;;;0.00;0.00;;;;;11.83;72.76;101795.25;5082968;28;45356;-77
2021/10/26 03:55:24;;;;;;;;;0.00;0.00;;;;;11.77;72.76;101785.53;5081749;28;45312;-77
2021/10/26 03:57:50;;;;;;;;;0.00;0.00;;;;;11.83;72.25;101802.16;5082676;28;45316;-77
2021/10/26 04:00:15;;;;;;;;;0.00;0.00;;;;;11.73;72.57;101777.63;5083005;28;45309;-77
2021/10/26 04:02:42;;;;;;;;;0.00;0.00;;;;;11.99;72.31;101813.78;5082863;28;45276;-77
2021/10/26 04:05:40;;;;;;;;;0.25;0.00;;;;;11.90;72.56;101799.72;5081325;28;45318;-78
2021/10/26 04:08:00;;;;;;;;;0.00;0.00;;;;;11.93;72.45;101809.34;5082730;28;45439;-77
2021/10/26 04:10:48;;;;;;;;;0.00;0.00;;;;;11.97;72.28;101805.94;5064385;28;47171;-77
2021/10/26 04:13:13;;;;;;;;;1.75;0.00;;;;;11.90;72.43;101801.44;5082975;28;45274;-77
2021/10/26 04:15:39;;;;;;;;;0.00;0.00;;;;;12.01;72.45;101814.72;5082669;28;45290;-77
2021/10/26 04:18:06;;;;;;;;;0.00;0.00;;;;;12.06;71.95;101826.13;5082721;28;45405;-77
2021/10/26 04:20:31;;;;;;;;;0.00;0.00;;;;;11.91;72.24;101801.47;5082581;28;45425;-77
2021/10/26 04:22:57;;;;;;;;;0.00;0.00;;;;;12.09;72.35;101825.31;5082063;28;45259;-77
2021/10/26 04:25:22;;;;;;;;;0.75;0.75;;;;;12.09;72.47;101826.22;5084340;27;45334;-77
2021/10/26 04:27:47;;;;;;;;;0.75;0.00;;;;;11.83;72.29;101783.91;5103302;27;45215;-77
2021/10/26 04:30:13;;;;;;;;;0.00;0.00;;;;;11.98;72.21;101807.69;5084354;27;47096;-77
2021/10/26 04:32:39;;;;;;;;;0.00;0.00;;;;;12.07;72.14;101822.69;5091556;27;45315;-77
2021/10/26 04:35:05;;;;;;;;;0.00;0.00;;;;;12.12;72.39;101833.22;5082139;28;45363;-77
2021/10/26 04:37:30;;;;;;;;;0.00;0.00;;;;;12.14;72.07;101832.41;5082346;28;45301;-77
2021/10/26 04:39:56;;;;;;;;;0.00;0.00;;;;;12.12;72.10;101828.00;5081969;28;45238;-77
2021/10/26 04:42:22;;;;;;;;;0.00;0.00;;;;;12.08;71.99;101826.19;5080784;28;45286;-77
2021/10/26 04:44:47;;;;;;;;;1.75;0.00;;;;;12.08;72.11;101815.75;5082259;28;45357;-77
2021/10/26 04:47:13;;;;;;;;;1.75;0.00;;;;;12.21;72.21;101848.19;5082050;28;45229;-77
2021/10/26 04:49:38;;;;;;;;;0.75;0.00;;;;;12.06;72.08;101820.91;5081941;28;45250;-77
2021/10/26 04:52:03;;;;;;;;;0.00;0.00;;;;;12.09;71.55;101818.38;5062980;28;45648;-77
2021/10/26 04:54:29;;;;;;;;;0.00;0.00;;;;;12.15;71.78;101839.38;5078704;28;45315;-77
2021/10/26 04:56:54;;;;;;;;;0.00;0.00;;;;;12.18;71.98;101832.44;5081259;28;45499;-77
2021/10/26 04:59:20;;;;;;;;;0.00;0.00;;;;;12.25;71.84;101852.63;5081230;28;45507;-77
2021/10/26 05:01:45;;;;;;;;;0.00;0.00;;;;;12.16;71.69;101835.91;5080606;28;45255;-75
2021/10/26 05:04:10;;;;;;;;;0.00;0.00;;;;;12.01;71.84;101812.09;5063714;28;45425;-76
2021/10/26 05:06:36;;;;;;;;;0.25;0.00;;;;;12.14;71.77;101835.03;5081203;28;45345;-75
2021/10/26 05:09:03;;;;;;;;;0.00;0.00;;;;;12.14;71.47;101832.41;5082813;28;45555;-74
2021/10/26 05:11:28;;;;;;;;;0.00;0.00;;;;;12.02;71.86;101808.63;5083394;28;45279;-75
2021/10/26 05:13:54;;;;;;;;;0.00;0.00;;;;;12.05;71.67;101808.69;5081616;28;45454;-75
2021/10/26 05:16:20;;;;;;;;;0.00;0.00;;;;;12.13;71.54;101824.56;5083543;28;45468;-76
2021/10/26 05:18:50;;;;;;;;;0.00;0.00;;;;;12.10;71.73;101820.13;5084309;28;46484;-76
2021/10/26 05:21:20;;;;;;;;;0.00;0.00;;;;;12.11;71.79;101827.13;5083599;28;45651;-75
2021/10/26 05:23:48;;;;;;;;;0.75;0.00;;;;;12.21;71.49;101840.34;5084225;28;45500;-75
2021/10/26 05:26:13;;;;;;;;;0.00;0.00;;;;;11.94;71.20;101800.66;5082873;28;45275;-80
2021/10/26 05:28:40;;;;;;;;;0.00;0.00;;;;;12.16;71.58;101848.97;5084428;28;46657;-76
2021/10/26 05:31:05;;;;;;;;;0.00;0.00;;;;;12.12;71.87;101846.25;5082962;28;45289;-78
2021/10/26 05:33:31;;;;;;;;;0.00;0.00;;;;;12.25;71.57;101860.47;5069537;28;46023;-76
2021/10/26 05:35:56;;;;;;;;;0.00;0.00;;;;;12.13;71.13;101846.28;5083228;28;45383;-75
2021/10/26 05:38:22;;;;;;;;;1.75;0.00;;;;;12.11;71.55;101844.50;5081989;28;46257;-77
2021/10/26 05:40:47;;;;;;;;;0.00;0.00;;;;;12.10;71.33;101851.44;5083817;28;45405;-75
2021/10/26 05:43:13;;;;;;;;;0.00;0.00;;;;;12.12;71.44;101860.22;5082705;28;45377;-75
2021/10/26 05:45:45;;;;;;;;;0.00;0.00;;;;;12.11;71.32;101855.84;5081143;28;45333;-76
2021/10/26 05:48:14;;;;;;;;;0.00;0.00;;;;;12.14;71.45;101865.47;5080791;28;47359;-76
2021/10/26 05:50:40;;;;;;;;;0.00;0.00;;;;;12.08;71.45;101858.38;5080510;28;45425;-79
2021/10/26 05:53:05;;;;;;;;;0.50;0.50;;;;;11.80;71.78;101816.03;5081697;28;45362;-81
2021/10/26 05:55:30;;;;;;;;;0.00;0.00;;;;;12.15;71.66;101878.53;5076240;28;46174;-80
2021/10/26 05:57:56;;;;;;;;;0.00;0.00;;;;;12.16;71.49;101882.03;5084666;28;46045;-76
2021/10/26 06:00:21;;;;;;;;;0.75;0.00;;;;;11.88;71.36;101837.03;5080907;28;45459;-79
2021/10/26 06:02:46;;;;;;;;;0.75;0.00;;;;;12.04;71.24;101869.59;5082406;28;45865;-77
2021/10/26 06:05:12;;;;;;;;;0.00;0.00;;;;;12.08;71.32;101886.22;5074646;28;45520;-77
2021/10/26 06:07:37;;;;;;;;;0.50;0.00;;;;;11.81;71.26;101849.09;5081007;28;46218;-77
2021/10/26 06:10:04;;;;;;;;;0.00;0.00;;;;;11.91;70.79;101873.66;5080356;28;45488;-76
2021/10/26 06:12:31;;;;;;;;;0.00;0.00;;;;;11.98;71.13;101899.03;5080992;28;45488;-76
2021/10/26 06:14:57;;;;;;;;;1.75;0.75;;;;;11.90;70.82;101901.50;5082043;28;45637;-76
2021/10/26 06:17:24;;;;;;;;;0.00;0.00;;;;;11.80;70.99;101899.53;5082213;28;46020;-76
2021/10/26 06:19:49;;;;;;;;;1.50;0.00;;;;;11.72;71.02;101903.66;5082078;28;45343;-77
2021/10/26 06:22:16;;;;;;;;;0.00;0.00;;;;;11.61;71.21;101904.31;5081508;28;45405;-76
2021/10/26 06:24:45;;;;;;;;;0.00;0.00;;;;;11.40;71.20;101879.50;5082509;28;45248;-76
2021/10/26 06:27:10;;;;;;;;;0.00;0.00;;;;;11.39;71.28;101895.97;5082272;28;45388;-76
2021/10/26 06:29:35;;;;;;;;;0.50;0.00;;;;;11.23;71.32;101878.22;5061349;28;45335;-76
2021/10/26 06:32:01;;;;;;;;;0.00;0.00;;;;;11.34;71.24;101918.47;5077515;28;45428;-76
2021/10/26 06:34:26;;;;;;;;;0.00;0.00;;;;;11.10;71.19;101888.34;5082215;28;45290;-77
2021/10/26 06:36:53;;;;;;;;;0.00;0.00;;;;;11.08;71.48;101890.03;5074104;28;46204;-77
2021/10/26 06:39:21;;;;;;;;;0.50;0.50;;;;;10.95;71.76;101873.22;5082308;28;45345;-77
2021/10/26 06:41:47;;;;;;;;;1.75;0.00;;;;;11.12;71.78;101910.09;5082302;28;45375;-77
2021/10/26 06:44:13;;;;;;;;;0.00;0.00;;;;;11.18;72.01;101921.53;5082000;28;45374;-77
2021/10/26 06:46:38;;;;;;;;;0.00;0.00;;;;;11.17;71.80;101911.94;5081901;28;46285;-77
2021/10/26 06:49:04;;;;;;;;;3.00;0.00;;;;;11.32;71.49;101935.78;5081988;28;45474;-77
2021/10/26 06:51:30;;;;;;;;;0.00;0.00;;;;;11.19;71.60;101915.47;5081186;28;45453;-78
2021/10/26 06:53:56;;;;;;;;;0.00;0.00;;;;;11.29;71.66;101935.72;5082034;28;45417;-81
2021/10/26 06:56:22;;;;;;;;;1.00;0.00;;;;;11.23;71.40;101936.44;5081621;28;46918;-80
2021/10/26 06:58:47;;;;;;;;;0.00;0.00;;;;;11.19;71.64;101911.16;5082709;28;45365;-79
2021/10/26 07:01:13;;;;;;;;;0.00;0.00;;;;;11.25;71.28;101932.16;5082598;28;45393;-79
2021/10/26 07:03:40;;;;;;;;;0.25;0.25;;;;;11.36;71.28;101955.88;5082749;28;45481;-78
2021/10/26 07:06:06;;;;;;;;;0.00;0.00;;;;;11.44;71.25;101970.81;5081451;28;45432;-80
2021/10/26 07:08:33;;;;;;;;;0.00;0.00;;;;;11.09;71.01;101938.69;5080714;28;45198;-78
2021/10/26 07:10:59;;;;;;;;;0.25;0.00;;;;;11.27;71.19;101981.69;5081702;28;45308;-82
2021/10/26 07:13:25;;;;;;;;;0.00;0.00;;;;;11.34;71.40;101985.38;5082170;28;45287;-76
2021/10/26 07:15:51;;;;;;;;;0.00;0.00;;;;;11.20;71.15;101959.81;5080797;28;46331;-75
2021/10/26 07:18:16;;;;;;;;;0.00;0.00;;;;;11.20;71.24;101966.75;5081391;28;45310;-75
2021/10/26 07:20:42;;;;;;;;;0.00;0.00;;;;;11.25;71.28;101972.97;5082088;28;45414;-75
2021/10/26 07:23:07;;;;;;;;;0.00;0.00;;;;;11.41;70.89;101997.72;5081898;28;45345;-75
2021/10/26 07:25:33;;;;;;;;;1.00;1.00;;;;;11.23;71.03;101983.38;5059874;28;47327;-76
2021/10/26 07:27:59;;;;;;;;;0.00;0.00;;;;;11.01;71.20;101971.50;5079830;28;45315;-76
2021/10/26 07:30:29;;;;;;;;;1.50;0.00;;;;;11.07;71.30;102005.53;5081549;28;45460;-77
2021/10/26 07:33:03;;;;;;;;;0.00;0.00;;;;;10.93;72.00;102026.00;5079655;28;45425;-78
2021/10/26 07:35:34;;;;;;;;;0.00;0.00;;;;;10.85;72.06;102031.00;5061298;28;47276;-76
2021/10/26 07:37:59;;;;;;;;;0.00;0.00;;;;;10.73;72.39;102002.88;5074198;28;45441;-75
2021/10/26 07:40:24;;;;;;;;;0.00;0.00;;;;;10.92;72.40;102029.44;5080262;28;45768;-76
2021/10/26 07:42:50;;;;;;;;;1.50;0.00;;;;;10.87;72.41;102018.88;5081088;28;45279;-76
2021/10/26 07:45:15;;;;;;;;;0.00;0.00;;;;;11.11;72.21;102033.44;5061413;28;46369;-76
2021/10/26 07:47:41;;;;;;;;;1.00;0.00;;;;;11.21;72.33;102037.16;5080655;28;45267;-77
2021/10/26 07:50:08;;;;;;;;;2.00;1.00;;;;;11.33;72.43;102040.97;5080686;28;45196;-76
2021/10/26 07:52:34;;;;;;;;;0.00;0.00;;;;;11.33;72.12;102049.66;5081475;28;45452;-75
2021/10/26 07:55:03;;;;;;;;;1.00;1.00;;;;;11.25;72.28;102062.50;5077527;28;45791;-79
2021/10/26 07:57:29;;;;;;;;;0.00;0.00;;;;;11.25;72.52;102069.41;5069833;28;45356;-77
2021/10/26 07:59:55;;;;;;;;;0.75;0.00;;;;;11.38;72.70;102068.91;5078230;28;46343;-78
2021/10/26 08:02:22;;;;;;;;;0.25;0.00;;;;;11.33;72.70;102049.66;5081548;28;45455;-78
2021/10/26 08:04:48;;;;;;;;;1.00;0.00;;;;;11.47;72.65;102060.44;5077347;28;46187;-76
2021/10/26 08:07:16;;;;;;;;;0.00;0.00;;;;;11.43;72.67;102044.69;5077204;28;45459;-78
2021/10/26 08:09:43;;;;;;;;;0.00;0.00;;;;;11.61;72.39;102057.31;5080843;28;45420;-78
2021/10/26 08:12:09;;;;;;;;;0.00;0.00;;;;;11.62;72.71;102046.03;5081337;28;45362;-75
2021/10/26 08:14:35;;;;;;;;;0.50;0.00;;;;;11.71;72.49;102048.88;5080818;28;45412;-75
2021/10/26 08:17:00;;;;;;;;;0.00;0.00;;;;;11.76;72.30;102055.09;5080111;28;45407;-75
2021/10/26 08:19:26;;;;;;;;;1.00;1.00;;;;;11.61;72.49;102026.03;5060726;28;45411;-75
2021/10/26 08:21:51;;;;;;;;;1.25;0.25;;;;;11.76;72.63;102049.00;5079845;28;45401;-77
2021/10/26 08:24:22;;;;;;;;;2.00;0.00;;;;;11.92;72.62;102050.25;5080278;28;46422;-76
2021/10/26 08:26:57;;;;;;;;;0.00;0.00;;;;;11.92;72.47;102024.16;5080550;28;45438;-76
2021/10/26 08:29:45;;;;;;;;;0.50;0.00;;;;;12.07;72.40;102049.75;5078507;28;45314;-76
2021/10/26 08:35:04;;;;;;;;;0.00;0.00;;;;;12.32;72.16;102045.13;5080265;28;45363;-76
2021/10/26 08:37:30;;;;;;;;;0.75;0.25;;;;;12.38;72.10;102045.22;5078483;28;45874;-75
2021/10/26 08:39:55;;;;;;;;;0.00;0.00;;;;;12.46;72.15;102042.78;5076507;28;45359;-76
2021/10/26 08:42:21;;;;;;;;;0.00;0.00;;;;;12.58;71.93;102039.56;5080617;28;45299;-77
2021/10/26 08:44:49;;;;;;;;;0.50;0.00;;;;;12.67;71.24;102042.38;5083325;28;45924;-77
2021/10/26 08:47:15;;;;;;;;;0.25;0.25;;;;;12.83;71.29;102053.13;5083317;28;45258;-77
2021/10/26 08:49:43;;;;;;;;;0.00;0.00;;;;;12.89;70.98;102048.03;5084924;28;45250;-77
2021/10/26 08:52:09;;;;;;;;;0.25;0.25;;;;;13.05;70.52;102046.59;5084851;28;45335;-76
2021/10/26 08:54:34;;;;;;;;;0.00;0.00;;;;;13.04;70.45;102036.09;5083444;28;45303;-76
2021/10/26 08:57:00;;;;;;;;;0.00;0.00;;;;;13.07;70.32;102032.69;5084182;28;45373;-76
2021/10/26 08:59:26;;;;;;;;;0.00;0.00;;;;;13.05;69.21;102028.31;5084653;28;45320;-76
2021/10/26 09:01:59;;;;;;;;;1.75;0.00;;;;;13.11;69.77;102039.75;5084929;28;45222;-77
2021/10/26 09:04:32;;;;;;;;;0.00;0.00;;;;;12.91;70.13;102007.16;5084026;28;46341;-79
2021/10/26 09:07:04;;;;;;;;;1.50;1.50;;;;;13.18;69.83;102026.78;5082921;28;45485;-80
2021/10/26 09:09:30;;;;;;;;;0.50;0.50;;;;;13.31;69.49;102029.63;5084668;28;45497;-76
2021/10/26 09:17:47;;;;;;;;;0.00;0.00;;;;;13.85;68.24;102052.38;5078054;28;45500;-76
2021/10/26 09:20:23;;;;;;;;;0.00;0.00;;;;;13.70;67.92;102058.22;5076625;28;45327;-77
2021/10/26 09:22:51;;;;;;;;;0.00;0.00;;;;;13.70;67.99;102053.91;5084682;28;45349;-79
2021/10/26 09:25:18;;;;;;;;;0.75;0.00;;;;;13.54;68.11;102052.75;5082961;28;45516;-77
2021/10/26 09:27:44;;;;;;;;;0.00;0.00;;;;;13.58;67.97;102046.72;5082496;28;45578;-77
2021/10/26 09:30:12;;;;;;;;;0.00;0.00;;;;;13.63;67.83;102047.66;5083534;28;45431;-76
2021/10/26 09:32:43;;;;;;;;;0.25;0.00;;;;;13.64;67.99;102044.22;5084202;28;45504;-76
2021/10/26 09:35:12;;;;;;;;;0.00;0.00;;;;;13.70;67.98;102022.50;5082879;28;45942;-76
2021/10/26 09:37:49;;;;;;;;;0.00;0.00;;;;;13.80;67.70;102024.41;5060163;28;45514;-79
2021/10/26 09:40:15;;;;;;;;;0.00;0.00;;;;;13.98;67.67;102032.50;5082594;28;45386;-78
2021/10/26 09:42:52;;;;;;;;;0.00;0.00;;;;;13.94;67.17;102027.22;5084226;28;45322;-78
2021/10/26 09:45:23;;;;;;;;;0.00;0.00;;;;;13.95;67.22;102046.44;5061704;28;48379;-77
2021/10/26 09:47:49;;;;;;;;;0.00;0.00;;;;;14.00;66.54;102036.03;5079461;28;45383;-77
2021/10/26 09:50:15;;;;;;;;;0.00;0.00;;;;;13.79;66.75;102021.75;5083411;28;45500;-77
2021/10/26 09:52:47;;;;;;;;;0.00;0.00;;;;;13.98;66.97;102037.72;5083055;28;45453;-77
2021/10/26 09:55:25;;;;;;;;;0.00;0.00;;;;;14.26;67.16;102038.13;5081066;28;46218;-77
2021/10/26 09:57:53;;;;;;;;;0.00;0.00;;;;;14.45;66.53;102039.28;5082415;28;45631;-77
2021/10/26 10:00:24;;;;;;;;;0.00;0.00;;;;;14.11;65.98;101997.78;5082142;28;45609;-77
2021/10/26 10:03:11;;;;;;;;;2.00;0.00;;;;;14.33;65.65;102037.34;5082434;28;45339;-77
2021/10/26 10:05:43;;;;;;;;;0.00;0.00;;;;;14.42;65.88;102055.84;5082583;28;45486;-77
2021/10/26 10:08:22;;;;;;;;;0.00;0.00;;;;;14.45;65.96;102049.75;5081691;28;45306;-77
2021/10/26 10:10:53;;;;;;;;;0.50;0.50;;;;;14.33;65.61;102047.84;5080455;28;45448;-78
2021/10/26 10:13:18;;;;;;;;;0.00;0.00;;;;;14.23;65.41;102051.19;5082912;28;45329;-78
2021/10/26 10:15:48;;;;;;;;;0.00;0.00;;;;;14.13;65.77;102052.81;5064266;28;46287;-77
2021/10/26 10:18:19;;;;;;;;;0.00;0.00;;;;;14.14;66.01;102060.69;5080496;28;45199;-78
2021/10/26 10:20:49;;;;;;;;;0.00;0.00;;;;;14.25;65.91;102047.75;5079413;28;45383;-77
2021/10/26 10:23:15;;;;;;;;;0.00;0.00;;;;;14.30;65.88;102056.53;5080690;28;45641;-78
2021/10/26 10:25:42;;;;;;;;;0.00;0.00;;;;;14.25;65.97;102066.09;5081906;28;45959;-77
2021/10/26 10:28:09;;;;;;;;;1.50;1.50;;;;;14.13;66.28;102031.84;5082013;28;45300;-77
2021/10/26 10:30:36;;;;;;;;;0.00;0.00;;;;;14.41;66.17;102059.31;5063630;28;45360;-77
2021/10/26 10:33:02;;;;;;;;;0.00;0.00;;;;;14.67;66.09;102068.41;5081027;28;45239;-77
2021/10/26 10:35:29;;;;;;;;;0.00;0.00;;;;;14.92;65.82;102068.72;5082435;28;45612;-77
2021/10/26 10:37:56;;;;;;;;;0.00;0.00;;;;;14.95;65.17;102025.06;5062788;28;45218;-77
2021/10/26 10:40:27;;;;;;;;;0.00;0.00;;;;;15.02;64.92;102030.38;5041120;28;45457;-79
2021/10/26 10:42:54;;;;;;;;;0.00;0.00;;;;;15.22;64.61;102040.19;5081727;28;45446;-77
2021/10/26 10:45:32;;;;;;;;;0.00;0.00;;;;;15.33;64.01;102063.06;5080646;28;47041;-77
2021/10/26 10:47:59;;;;;;;;;0.75;0.75;;;;;15.24;64.18;102062.06;5081210;28;45346;-77
2021/10/26 10:50:31;;;;;;;;;0.00;0.00;;;;;15.18;64.39;102061.16;5079505;28;45433;-76
2021/10/26 10:53:13;;;;;;;;;1.00;0.00;;;;;15.05;64.43;102059.25;5064855;28;45484;-79
2021/10/26 10:55:42;;;;;;;;;0.00;0.00;;;;;14.76;64.71;102028.31;5082286;28;45419;-80
2021/10/26 10:58:31;;;;;;;;;0.00;0.00;;;;;14.79;64.75;102037.09;5062286;28;45450;-80
2021/10/26 11:01:35;;;;;;;;;0.75;0.00;;;;;14.86;64.88;102059.06;5082511;28;45306;-80
2021/10/26 11:04:21;;;;;;;;;0.00;0.00;;;;;14.89;64.98;102058.19;5081435;28;45471;-78
2021/10/26 11:06:47;;;;;;;;;1.00;0.00;;;;;14.92;64.95;102068.72;5064611;27;45750;-79
2021/10/26 11:09:31;;;;;;;;;0.00;0.00;;;;;14.80;65.07;102045.88;5062424;28;45260;-79
2021/10/26 11:12:12;;;;;;;;;0.00;0.00;;;;;14.87;65.44;102063.44;5063931;28;45281;-79
2021/10/26 11:14:54;;;;;;;;;0.00;0.00;;;;;14.68;65.25;102039.56;5082160;28;45323;-79
2021/10/26 11:17:32;;;;;;;;;0.75;0.00;;;;;14.82;65.31;102059.84;5081948;28;46805;-78
2021/10/26 11:20:16;;;;;;;;;0.50;0.00;;;;;14.70;65.44;102035.22;5081528;28;45268;-78
2021/10/26 11:22:45;;;;;;;;;0.00;0.00;;;;;14.83;65.56;102045.91;5059806;28;45454;-78
2021/10/26 11:25:22;;;;;;;;;0.00;0.00;;;;;14.86;65.60;102059.06;5080164;28;45374;-78
2021/10/26 11:27:49;;;;;;;;;1.00;0.00;;;;;14.62;65.61;102010.69;5079703;28;46309;-81
2021/10/26 11:30:32;;;;;;;;;0.00;0.00;;;;;14.77;65.50;102046.69;5081401;28;45314;-79
2021/10/26 11:33:13;;;;;;;;;0.00;0.00;;;;;14.72;65.76;102034.34;5080897;28;45330;-80
2021/10/26 11:36:05;;;;;;;;;0.00;0.00;;;;;14.82;65.59;102033.63;5063127;28;45450;-79